Time;durP1;ratioP1;P1;durP2;ratioP2;P2;SDS_P1;SDS_P2;PMS_P1;PMS_P2;Temp;Humidity;BMP_temperature;BMP_pressure;BME280_temperature;BME280_humidity;BME280_pressure;Samples;Min_cycle;Max_cycle;Signal;HPM_P1;HPM_P2
2023/03/28 00:02:26;;;;;;;7.50;1.73;;;3.10;99.90;;;;;;5037820;28;20231;-81
2023/03/28 00:04:52;;;;;;;3.60;1.20;;;3.20;99.90;;;;;;5037929;28;20216;-81
2023/03/28 00:07:20;;;;;;;8.17;1.80;;;3.10;99.90;;;;;;5038926;28;20215;-80
2023/03/28 00:09:49;;;;;;;6.93;1.37;;;3.10;99.90;;;;;;5038406;28;20291;-80
2023/03/28 00:12:16;;;;;;;5.27;1.33;;;3.20;99.90;;;;;;5037345;28;20255;-80
2023/03/28 00:14:45;;;;;;;9.60;1.80;;;3.30;99.90;;;;;;5036977;28;20682;-81
2023/03/28 00:17:12;;;;;;;9.80;1.40;;;3.20;99.90;;;;;;5038003;28;20595;-81
2023/03/28 00:19:39;;;;;;;12.10;1.90;;;3.30;99.90;;;;;;5037541;28;20219;-81
2023/03/28 00:22:07;;;;;;;8.67;1.53;;;3.30;99.90;;;;;;5037532;28;20277;-80
2023/03/28 00:24:37;;;;;;;8.47;1.63;;;3.40;99.90;;;;;;5037756;28;20687;-81
2023/03/28 00:27:05;;;;;;;6.83;1.60;;;3.30;99.90;;;;;;5036737;28;20241;-80
2023/03/28 00:29:33;;;;;;;6.13;1.73;;;3.30;99.90;;;;;;5036707;28;20235;-81
2023/03/28 00:32:01;;;;;;;9.53;1.97;;;3.30;99.90;;;;;;5037985;28;20239;-81
2023/03/28 00:34:28;;;;;;;7.57;1.93;;;3.30;99.90;;;;;;5038110;28;20203;-81
2023/03/28 00:36:54;;;;;;;9.60;2.80;;;3.30;99.90;;;;;;5038349;28;20207;-80
2023/03/28 00:39:22;;;;;;;7.20;1.60;;;3.30;99.90;;;;;;5036805;28;20203;-82
2023/03/28 00:41:49;;;;;;;3.63;1.17;;;3.20;99.90;;;;;;5037894;28;20199;-80
2023/03/28 00:44:48;;;;;;;13.40;2.47;;;3.20;99.90;;;;;;5037556;28;20192;-81
2023/03/28 00:47:40;;;;;;;5.67;1.20;;;3.10;99.90;;;;;;5025211;28;20200;-80
2023/03/28 00:50:11;;;;;;;6.50;1.47;;;3.10;99.90;;;;;;5036350;28;20208;-80
2023/03/28 00:52:42;;;;;;;4.43;1.40;;;3.10;99.90;;;;;;5036694;28;20219;-81
2023/03/28 00:55:13;;;;;;;5.13;1.47;;;3.00;99.90;;;;;;5036851;28;20204;-81
2023/03/28 00:57:41;;;;;;;7.70;1.50;;;3.00;99.90;;;;;;5037554;28;20678;-81
2023/03/28 01:00:12;;;;;;;5.07;1.43;;;2.90;99.90;;;;;;5035703;28;20203;-80
2023/03/28 01:02:44;;;;;;;7.43;1.60;;;2.70;99.90;;;;;;5036567;28;20219;-81
2023/03/28 01:05:13;;;;;;;4.43;1.40;;;2.50;99.90;;;;;;5036823;28;20230;-81
2023/03/28 01:07:45;;;;;;;9.77;1.80;;;2.40;99.90;;;;;;5036683;28;20227;-80
2023/03/28 01:10:12;;;;;;;8.30;1.70;;;2.50;99.90;;;;;;5032283;28;20207;-81
2023/03/28 01:12:41;;;;;;;12.33;1.67;;;2.50;99.90;;;;;;5033035;28;20228;-80
2023/03/28 01:15:09;;;;;;;9.50;1.70;;;2.50;99.90;;;;;;5036189;28;20194;-80
2023/03/28 01:17:36;;;;;;;7.17;1.43;;;2.50;99.90;;;;;;5036315;28;20198;-80
2023/03/28 01:20:16;;;;;;;3.93;1.40;;;2.50;99.90;;;;;;5027833;28;20591;-81
2023/03/28 01:23:20;;;;;;;6.07;1.63;;;2.50;99.90;;;;;;5033338;28;20275;-81
2023/03/28 01:26:26;;;;;;;13.73;1.60;;;2.50;99.90;;;;;;5033096;28;20276;-80
2023/03/28 01:29:24;;;;;;;10.87;2.57;;;2.40;99.90;;;;;;5025425;28;20203;-80
2023/03/28 01:32:18;;;;;;;5.97;1.53;;;2.50;99.90;;;;;;5034068;28;20208;-81
2023/03/28 01:35:05;;;;;;;6.60;1.30;;;2.40;99.90;;;;;;5035063;28;20562;-80
2023/03/28 01:37:41;;;;;;;6.80;1.57;;;2.40;99.90;;;;;;5035414;28;20211;-81
2023/03/28 01:40:24;;;;;;;5.87;1.37;;;2.30;99.90;;;;;;5034806;28;20207;-81
2023/03/28 01:42:58;;;;;;;7.13;2.30;;;2.30;99.90;;;;;;5035186;28;20219;-81
2023/03/28 01:45:31;;;;;;;6.43;1.33;;;2.30;99.90;;;;;;5036145;28;20216;-80
2023/03/28 01:48:05;;;;;;;4.30;1.63;;;2.30;99.90;;;;;;5025043;28;20204;-81
2023/03/28 01:50:38;;;;;;;5.73;1.53;;;2.30;99.90;;;;;;5035751;28;20214;-81
2023/03/28 01:53:12;;;;;;;8.17;2.10;;;2.30;99.90;;;;;;5034581;28;20230;-81
2023/03/28 01:55:47;;;;;;;8.13;1.70;;;2.30;99.90;;;;;;5035252;28;20203;-80
2023/03/28 01:58:19;;;;;;;5.23;1.60;;;2.40;99.90;;;;;;5034914;28;20203;-81
2023/03/28 02:00:53;;;;;;;8.00;1.93;;;2.40;99.90;;;;;;5035223;28;20677;-81
2023/03/28 02:03:24;;;;;;;7.50;1.70;;;2.40;99.90;;;;;;5034185;28;20223;-81
2023/03/28 02:05:54;;;;;;;4.30;1.77;;;2.40;99.90;;;;;;5035709;28;20227;-80
2023/03/28 02:08:24;;;;;;;8.83;1.97;;;2.40;99.90;;;;;;5034206;28;20562;-81
2023/03/28 02:10:53;;;;;;;6.57;1.97;;;2.40;99.90;;;;;;5035579;28;20210;-81
2023/03/28 02:13:25;;;;;;;7.43;1.50;;;2.40;99.90;;;;;;5033310;28;20216;-81
2023/03/28 02:15:55;;;;;;;10.47;1.90;;;2.40;99.90;;;;;;5035128;28;20234;-80
2023/03/28 02:18:28;;;;;;;8.03;2.00;;;2.30;99.90;;;;;;5033783;28;20407;-83
2023/03/28 02:20:59;;;;;;;9.70;1.80;;;2.30;99.90;;;;;;5036025;28;20235;-81
2023/03/28 02:23:30;;;;;;;9.00;1.63;;;2.40;99.90;;;;;;5034557;28;20219;-80
2023/03/28 02:25:57;;;;;;;10.13;1.80;;;2.30;99.90;;;;;;5034446;28;20250;-80
2023/03/28 02:28:25;;;;;;;8.33;2.23;;;2.30;99.90;;;;;;5033963;28;20278;-80
2023/03/28 02:30:54;;;;;;;6.13;1.53;;;2.30;99.90;;;;;;5034110;28;20206;-80
2023/03/28 02:33:36;;;;;;;9.73;2.40;;;2.30;99.90;;;;;;5034888;28;20322;-80
2023/03/28 02:36:22;;;;;;;9.60;2.10;;;2.20;99.90;;;;;;5036006;28;20729;-79
2023/03/28 02:38:59;;;;;;;9.50;2.17;;;2.20;99.90;;;;;;5023500;28;20203;-80
2023/03/28 02:41:34;;;;;;;9.10;1.90;;;2.20;99.90;;;;;;5035241;28;20200;-81
2023/03/28 02:44:29;;;;;;;11.67;2.03;;;2.10;99.90;;;;;;5035633;28;20227;-82
2023/03/28 02:47:05;;;;;;;10.03;1.80;;;2.10;99.90;;;;;;5018394;28;20215;-81
2023/03/28 02:50:00;;;;;;;9.07;2.20;;;2.00;99.90;;;;;;5033438;28;20225;-80
2023/03/28 02:52:39;;;;;;;7.73;1.90;;;2.00;99.90;;;;;;5027975;28;20226;-81
2023/03/28 02:55:15;;;;;;;8.67;1.70;;;2.00;99.90;;;;;;5033096;28;20597;-81
2023/03/28 02:57:48;;;;;;;6.60;1.80;;;2.00;99.90;;;;;;5033762;28;20200;-80
2023/03/28 03:00:18;;;;;;;9.67;1.97;;;2.00;99.90;;;;;;5032838;28;20269;-81
2023/03/28 03:02:48;;;;;;;8.00;1.97;;;1.90;99.90;;;;;;5012841;28;20226;-82
2023/03/28 03:05:16;;;;;;;5.83;2.20;;;1.90;99.90;;;;;;5023473;28;20245;-82
2023/03/28 03:07:43;;;;;;;6.93;1.67;;;2.00;99.90;;;;;;5034855;28;20258;-81
2023/03/28 03:10:13;;;;;;;9.20;1.90;;;2.00;99.90;;;;;;5034690;28;20660;-82
2023/03/28 03:12:40;;;;;;;4.97;1.47;;;2.00;99.90;;;;;;5032797;28;20219;-82
2023/03/28 03:15:09;;;;;;;10.27;2.00;;;2.10;99.90;;;;;;5034490;28;20212;-81
2023/03/28 03:17:36;;;;;;;10.97;1.90;;;2.10;99.90;;;;;;5033632;28;20199;-81
2023/03/28 03:20:05;;;;;;;11.17;1.90;;;2.10;99.90;;;;;;5033546;28;20254;-81
2023/03/28 03:22:32;;;;;;;5.93;1.87;;;2.10;99.90;;;;;;5034583;28;20216;-81
2023/03/28 03:25:03;;;;;;;9.37;2.27;;;2.20;99.90;;;;;;5035010;28;20195;-80
2023/03/28 03:27:31;;;;;;;9.63;2.73;;;2.20;99.90;;;;;;5036930;28;20215;-81
2023/03/28 03:29:58;;;;;;;7.17;1.97;;;2.10;99.90;;;;;;5036991;28;20666;-84
2023/03/28 03:32:25;;;;;;;6.93;1.70;;;2.10;99.90;;;;;;5036406;28;20227;-82
2023/03/28 03:34:52;;;;;;;7.73;2.00;;;2.10;99.90;;;;;;5036828;28;20209;-80
2023/03/28 03:37:18;;;;;;;9.13;1.70;;;2.10;99.90;;;;;;5036680;28;20204;-83
2023/03/28 03:39:46;;;;;;;10.47;1.93;;;2.10;99.90;;;;;;5037751;28;20211;-82
2023/03/28 03:42:13;;;;;;;9.20;3.33;;;2.10;99.90;;;;;;5037235;28;20226;-82
2023/03/28 03:44:41;;;;;;;9.57;1.80;;;2.20;99.90;;;;;;5036719;28;20211;-81
2023/03/28 03:47:08;;;;;;;7.10;1.67;;;2.20;99.90;;;;;;5034897;28;20669;-81
2023/03/28 03:49:35;;;;;;;4.47;1.90;;;2.20;99.90;;;;;;5036615;28;20218;-82
2023/03/28 03:52:02;;;;;;;7.70;2.13;;;2.20;99.90;;;;;;5037392;28;20587;-82
2023/03/28 03:54:28;;;;;;;5.53;1.67;;;2.10;99.90;;;;;;5037812;28;20594;-82
2023/03/28 03:56:55;;;;;;;10.00;2.00;;;2.00;99.90;;;;;;5038482;28;20676;-82
2023/03/28 03:59:22;;;;;;;7.23;2.00;;;1.90;99.90;;;;;;5037451;28;20204;-82
2023/03/28 04:01:50;;;;;;;8.33;2.00;;;1.90;99.90;;;;;;5037524;28;20421;-82
2023/03/28 04:04:17;;;;;;;7.10;2.20;;;1.90;99.90;;;;;;5037644;28;20490;-82
2023/03/28 04:06:44;;;;;;;6.30;1.80;;;1.90;99.90;;;;;;5038071;28;20220;-82
2023/03/28 04:09:10;;;;;;;7.50;1.70;;;1.80;99.90;;;;;;5038292;28;20207;-82
2023/03/28 04:11:37;;;;;;;7.03;1.57;;;1.80;99.90;;;;;;5037755;28;20202;-82
2023/03/28 04:14:04;;;;;;;7.57;2.27;;;1.70;99.90;;;;;;5037917;28;20227;-82
2023/03/28 04:16:33;;;;;;;6.23;1.93;;;1.70;99.90;;;;;;5037937;28;20204;-82
2023/03/28 04:19:01;;;;;;;5.27;1.77;;;1.70;99.90;;;;;;5037385;28;20207;-82
2023/03/28 04:21:31;;;;;;;8.73;2.93;;;1.60;99.90;;;;;;5037974;28;20207;-82
2023/03/28 04:24:00;;;;;;;9.33;2.13;;;1.60;99.90;;;;;;5038127;28;20279;-82
2023/03/28 04:26:27;;;;;;;6.50;1.83;;;1.50;99.90;;;;;;5037903;28;20596;-82
2023/03/28 04:28:55;;;;;;;8.07;2.00;;;1.50;99.90;;;;;;5037645;28;20202;-82
2023/03/28 04:31:27;;;;;;;8.40;2.37;;;1.50;99.90;;;;;;5037849;28;20266;-82
2023/03/28 04:33:54;;;;;;;5.27;2.00;;;1.60;99.90;;;;;;5037797;28;20600;-82
2023/03/28 04:36:24;;;;;;;12.33;2.50;;;1.60;99.90;;;;;;5037058;28;20204;-82
2023/03/28 04:38:51;;;;;;;6.77;2.00;;;1.60;99.90;;;;;;5038114;28;20196;-82
2023/03/28 04:41:18;;;;;;;5.87;1.63;;;1.60;99.90;;;;;;5037623;28;20211;-82
2023/03/28 04:43:44;;;;;;;5.77;1.87;;;1.60;99.90;;;;;;5036507;28;20227;-82
2023/03/28 04:46:11;;;;;;;6.10;2.00;;;1.60;99.90;;;;;;5036690;28;20238;-82
2023/03/28 04:48:38;;;;;;;9.63;2.10;;;1.70;99.90;;;;;;5036584;28;20222;-82
2023/03/28 04:51:06;;;;;;;5.23;1.57;;;1.60;99.90;;;;;;5037320;28;20625;-82
2023/03/28 04:53:35;;;;;;;10.60;2.53;;;1.60;99.90;;;;;;5036727;28;20224;-82
2023/03/28 04:56:02;;;;;;;9.80;1.93;;;1.60;99.90;;;;;;5037390;28;20385;-82
2023/03/28 04:58:28;;;;;;;10.37;2.30;;;1.60;99.90;;;;;;5036733;28;20200;-82
2023/03/28 05:00:55;;;;;;;11.27;2.13;;;1.60;99.90;;;;;;5037047;28;20203;-82
2023/03/28 05:03:23;;;;;;;9.87;2.00;;;1.60;99.90;;;;;;5037157;28;20223;-82
2023/03/28 05:05:52;;;;;;;5.23;1.83;;;1.60;99.90;;;;;;5037038;28;20227;-82
2023/03/28 05:08:22;;;;;;;9.07;1.80;;;1.70;99.90;;;;;;5036772;28;20216;-82
2023/03/28 05:10:51;;;;;;;8.17;1.80;;;1.70;99.90;;;;;;5037340;28;20567;-82
2023/03/28 05:13:18;;;;;;;8.67;1.70;;;1.70;99.90;;;;;;5037326;28;20220;-82
2023/03/28 05:15:47;;;;;;;8.33;1.73;;;1.70;99.90;;;;;;5037380;28;20204;-82
2023/03/28 05:18:15;;;;;;;8.30;1.80;;;1.70;99.90;;;;;;5037265;28;20203;-82
2023/03/28 05:20:42;;;;;;;6.63;2.23;;;1.70;99.90;;;;;;5037166;28;20242;-82
2023/03/28 05:23:09;;;;;;;7.53;1.70;;;1.70;99.90;;;;;;5038507;28;20219;-82
2023/03/28 05:25:36;;;;;;;8.73;1.80;;;1.80;99.90;;;;;;5038072;28;20582;-82
2023/03/28 05:28:04;;;;;;;8.50;1.80;;;1.80;99.90;;;;;;5037487;28;20203;-82
2023/03/28 05:30:31;;;;;;;7.50;1.67;;;2.00;99.90;;;;;;5040586;28;20191;-81
2023/03/28 05:32:58;;;;;;;6.17;1.27;;;2.20;99.90;;;;;;5036299;28;20625;-81
2023/03/28 05:35:25;;;;;;;4.43;1.50;;;2.30;99.90;;;;;;5036306;28;20196;-81
2023/03/28 05:37:52;;;;;;;10.67;1.47;;;2.30;99.90;;;;;;5035707;28;20211;-81
2023/03/28 05:40:19;;;;;;;9.17;2.60;;;2.40;99.90;;;;;;5034261;28;20205;-81
2023/03/28 05:42:46;;;;;;;6.97;1.20;;;2.50;99.90;;;;;;5031084;28;20230;-81
2023/03/28 05:45:16;;;;;;;6.60;1.60;;;2.60;99.90;;;;;;5035886;28;20223;-81
2023/03/28 05:47:42;;;;;;;9.33;1.53;;;2.50;99.90;;;;;;5036849;28;20306;-81
2023/03/28 05:50:10;;;;;;;8.83;1.73;;;2.40;99.90;;;;;;5035933;28;20214;-81
2023/03/28 05:52:37;;;;;;;8.47;2.10;;;2.40;99.90;;;;;;5035771;28;20220;-81
2023/03/28 05:55:05;;;;;;;8.73;1.93;;;2.50;99.90;;;;;;5035246;28;20210;-81
2023/03/28 05:57:32;;;;;;;9.23;1.47;;;2.50;99.90;;;;;;5035455;28;20195;-81
2023/03/28 05:59:59;;;;;;;4.67;1.20;;;2.50;99.90;;;;;;5034682;28;20215;-81
2023/03/28 06:02:28;;;;;;;5.73;2.07;;;2.60;99.90;;;;;;5035697;28;20285;-81
2023/03/28 06:04:55;;;;;;;6.60;1.70;;;2.80;99.90;;;;;;5035164;28;20644;-81
2023/03/28 06:07:22;;;;;;;4.30;1.50;;;3.00;99.90;;;;;;5035493;28;20562;-81
2023/03/28 06:09:49;;;;;;;6.37;1.63;;;2.90;99.90;;;;;;5034957;28;20208;-81
2023/03/28 06:12:15;;;;;;;4.77;1.17;;;2.80;99.90;;;;;;5035425;28;20314;-81
2023/03/28 06:14:42;;;;;;;5.07;1.40;;;2.90;99.90;;;;;;5035315;28;20212;-81
2023/03/28 06:17:09;;;;;;;8.70;2.50;;;2.80;99.90;;;;;;5033651;28;20217;-80
2023/03/28 06:19:37;;;;;;;9.57;1.57;;;3.00;99.90;;;;;;5034555;28;20242;-80
2023/03/28 06:22:04;;;;;;;7.80;1.33;;;3.50;99.90;;;;;;5035037;28;20227;-81
2023/03/28 06:24:31;;;;;;;6.93;1.67;;;3.50;99.90;;;;;;5034393;28;20668;-81
2023/03/28 06:26:58;;;;;;;8.27;1.63;;;3.50;99.90;;;;;;5034586;28;20227;-80
2023/03/28 06:29:25;;;;;;;6.90;1.57;;;3.30;99.90;;;;;;5032427;28;20206;-80
2023/03/28 06:31:52;;;;;;;6.83;1.60;;;3.30;99.90;;;;;;5032901;28;20213;-81
2023/03/28 06:34:18;;;;;;;6.67;1.60;;;3.20;99.90;;;;;;5033623;28;20215;-80
2023/03/28 06:36:47;;;;;;;7.70;1.70;;;3.20;99.90;;;;;;5035295;28;20706;-80
2023/03/28 06:39:14;;;;;;;5.83;1.60;;;3.20;99.90;;;;;;5033886;28;20675;-80
2023/03/28 06:41:40;;;;;;;8.53;1.93;;;3.20;99.90;;;;;;5034540;28;20207;-80
2023/03/28 06:44:07;;;;;;;6.43;2.20;;;3.30;99.90;;;;;;5034328;28;20203;-80
2023/03/28 06:46:34;;;;;;;5.90;1.70;;;3.40;99.90;;;;;;5034505;28;20261;-80
2023/03/28 06:49:01;;;;;;;4.47;1.60;;;4.50;99.90;;;;;;5034394;28;20271;-80
2023/03/28 06:51:28;;;;;;;10.73;1.63;;;5.00;99.90;;;;;;5034682;28;20835;-81
2023/03/28 06:53:56;;;;;;;7.27;1.80;;;5.20;99.90;;;;;;5035886;28;20227;-80
2023/03/28 06:56:23;;;;;;;5.17;2.00;;;5.00;99.90;;;;;;5033877;28;20664;-81
2023/03/28 06:58:50;;;;;;;5.30;1.53;;;4.50;99.90;;;;;;5036408;28;21273;-80
2023/03/28 07:01:17;;;;;;;7.43;1.60;;;4.70;99.90;;;;;;5036433;28;20203;-80
2023/03/28 07:03:44;;;;;;;7.90;1.50;;;4.60;99.90;;;;;;5038421;28;20234;-81
2023/03/28 07:06:11;;;;;;;5.20;1.50;;;4.50;99.90;;;;;;5037384;28;20200;-81
2023/03/28 07:08:41;;;;;;;8.07;1.60;;;4.60;99.90;;;;;;5038369;28;20199;-80
2023/03/28 07:11:09;;;;;;;7.90;1.77;;;4.60;99.90;;;;;;5036368;28;20294;-81
2023/03/28 07:13:36;;;;;;;13.53;2.13;;;5.30;99.90;;;;;;5036837;28;20219;-80
2023/03/28 07:16:06;;;;;;;9.17;1.73;;;5.30;99.90;;;;;;5030073;28;20254;-80
2023/03/28 07:18:32;;;;;;;9.67;1.53;;;5.10;99.90;;;;;;5037374;28;20211;-80
2023/03/28 07:20:59;;;;;;;6.73;1.60;;;5.00;99.90;;;;;;5038209;28;20204;-81
2023/03/28 07:23:26;;;;;;;8.50;1.17;;;5.10;99.90;;;;;;5037510;28;20680;-81
2023/03/28 07:25:53;;;;;;;10.93;2.23;;;5.60;99.90;;;;;;5037767;28;20263;-80
2023/03/28 07:28:23;;;;;;;4.17;1.30;;;5.70;99.90;;;;;;5037437;28;20236;-80
2023/03/28 07:30:49;;;;;;;11.10;1.53;;;5.60;99.90;;;;;;5037550;28;20238;-80
2023/03/28 07:33:16;;;;;;;8.80;1.60;;;5.40;99.90;;;;;;5036029;28;20244;-80
2023/03/28 07:35:43;;;;;;;5.13;1.70;;;5.30;99.90;;;;;;5037193;28;20211;-81
2023/03/28 07:38:10;;;;;;;7.83;2.60;;;5.30;99.90;;;;;;5034936;28;20200;-80
2023/03/28 07:40:37;;;;;;;9.73;1.90;;;5.20;99.90;;;;;;5038036;28;20211;-80
2023/03/28 07:43:04;;;;;;;11.60;2.07;;;5.00;99.90;;;;;;5037163;28;20246;-80
2023/03/28 07:45:33;;;;;;;5.07;1.40;;;5.10;99.90;;;;;;5037537;28;20199;-81
2023/03/28 07:47:59;;;;;;;5.57;1.60;;;5.00;99.90;;;;;;5036228;28;20230;-80
2023/03/28 07:50:26;;;;;;;4.73;1.50;;;5.10;99.90;;;;;;5037087;28;20581;-80
2023/03/28 07:52:56;;;;;;;7.03;1.80;;;5.20;99.90;;;;;;5035166;28;20561;-80
2023/03/28 07:55:24;;;;;;;10.50;2.17;;;5.20;99.90;;;;;;5035151;28;20208;-80
2023/03/28 07:57:51;;;;;;;9.50;1.83;;;5.20;99.90;;;;;;5036078;28;20286;-79
2023/03/28 08:00:20;;;;;;;6.67;1.67;;;5.20;99.90;;;;;;5036148;28;20230;-80
2023/03/28 08:02:48;;;;;;;12.20;2.03;;;5.30;99.90;;;;;;5036058;28;20238;-80
2023/03/28 08:05:15;;;;;;;6.33;1.83;;;5.30;99.90;;;;;;5036959;28;20214;-80
2023/03/28 08:07:44;;;;;;;5.47;1.60;;;5.30;99.90;;;;;;5034632;28;20715;-81
2023/03/28 08:10:12;;;;;;;7.47;1.63;;;5.30;99.90;;;;;;5034733;28;20207;-81
2023/03/28 08:12:39;;;;;;;9.33;1.80;;;5.40;99.90;;;;;;5037001;28;20227;-80
2023/03/28 08:15:07;;;;;;;6.23;1.40;;;5.50;99.90;;;;;;5035461;28;20210;-80
2023/03/28 08:17:34;;;;;;;6.53;1.80;;;5.50;99.90;;;;;;5016496;28;20571;-81
2023/03/28 08:20:04;;;;;;;5.57;1.57;;;5.60;99.90;;;;;;5016105;28;20211;-81
2023/03/28 08:22:31;;;;;;;13.13;2.27;;;5.70;99.90;;;;;;5036138;28;20234;-81
2023/03/28 08:24:57;;;;;;;11.40;2.00;;;5.90;99.90;;;;;;5036246;28;20204;-81
2023/03/28 08:27:26;;;;;;;6.03;1.80;;;6.10;99.90;;;;;;5036532;28;20235;-80
2023/03/28 08:29:52;;;;;;;10.00;2.23;;;6.20;99.90;;;;;;5034595;28;20214;-80
2023/03/28 08:32:19;;;;;;;5.73;1.30;;;6.10;99.90;;;;;;5034940;28;20259;-81
2023/03/28 08:34:46;;;;;;;7.50;1.93;;;6.20;99.90;;;;;;5036545;28;20211;-81
2023/03/28 08:37:14;;;;;;;6.27;1.77;;;6.30;99.90;;;;;;5036579;28;20210;-81
2023/03/28 08:39:41;;;;;;;7.53;2.03;;;6.50;99.90;;;;;;5035482;28;20199;-81
2023/03/28 08:42:31;;;;;;;8.23;1.70;;;6.60;99.90;;;;;;5035090;28;20231;-81
2023/03/28 08:45:19;;;;;;;7.17;1.37;;;6.60;99.90;;;;;;5025122;28;20214;-81
2023/03/28 08:47:55;;;;;;;7.60;1.77;;;6.70;99.90;;;;;;5018345;28;20227;-80
2023/03/28 08:50:27;;;;;;;9.00;1.87;;;6.90;99.90;;;;;;5037351;28;20578;-81
2023/03/28 08:52:56;;;;;;;7.50;1.60;;;6.80;99.90;;;;;;5036686;28;20232;-81
2023/03/28 08:55:30;;;;;;;7.10;1.80;;;7.10;99.90;;;;;;5035326;28;20200;-81
2023/03/28 08:57:58;;;;;;;8.87;1.90;;;7.10;99.90;;;;;;5036159;28;20206;-81
2023/03/28 09:00:29;;;;;;;8.03;1.63;;;7.10;99.90;;;;;;5035629;28;20218;-81
2023/03/28 09:02:56;;;;;;;4.13;1.30;;;7.10;99.90;;;;;;5036101;28;20226;-81
2023/03/28 09:05:29;;;;;;;8.50;1.53;;;7.10;99.90;;;;;;5035468;28;20203;-81
2023/03/28 09:08:03;;;;;;;9.40;1.77;;;7.10;99.90;;;;;;5036423;28;20227;-81
2023/03/28 09:10:39;;;;;;;7.60;1.50;;;7.00;99.90;;;;;;5032003;28;20299;-81
2023/03/28 09:13:17;;;;;;;9.13;1.60;;;7.20;99.90;;;;;;5035538;28;20279;-81
2023/03/28 09:16:03;;;;;;;10.90;1.60;;;7.50;99.90;;;;;;5036373;28;20207;-81
2023/03/28 09:18:56;;;;;;;11.70;1.83;;;7.40;99.90;;;;;;5035461;28;20655;-81
2023/03/28 09:21:32;;;;;;;11.47;2.03;;;7.60;99.90;;;;;;5022227;28;20200;-80
2023/03/28 09:24:20;;;;;;;12.23;1.47;;;7.50;99.90;;;;;;5033709;28;20226;-80
2023/03/28 09:26:55;;;;;;;5.53;1.20;;;7.60;99.90;;;;;;5035444;28;20672;-80
2023/03/28 09:29:24;;;;;;;7.60;1.63;;;7.70;99.90;;;;;;5033358;28;20205;-81
2023/03/28 09:31:56;;;;;;;11.47;2.83;;;7.50;99.90;;;;;;5034622;28;20215;-81
2023/03/28 09:34:27;;;;;;;10.00;1.70;;;7.60;99.90;;;;;;5035696;28;20215;-81
2023/03/28 09:36:59;;;;;;;5.93;1.40;;;7.40;99.90;;;;;;5035176;28;20210;-82
2023/03/28 09:39:35;;;;;;;7.37;1.30;;;7.50;99.90;;;;;;5035650;28;20210;-81
2023/03/28 09:42:06;;;;;;;5.83;1.70;;;7.20;99.90;;;;;;5034705;28;20223;-81
2023/03/28 09:44:41;;;;;;;7.07;1.60;;;7.60;99.90;;;;;;5035816;28;20206;-81
2023/03/28 09:47:12;;;;;;;8.23;2.00;;;7.50;99.90;;;;;;5035575;28;20203;-81
2023/03/28 09:49:39;;;;;;;10.20;1.77;;;7.60;99.90;;;;;;5035882;28;20249;-81
2023/03/28 09:52:15;;;;;;;5.93;1.37;;;7.60;99.90;;;;;;5034931;28;20228;-81
2023/03/28 09:54:43;;;;;;;9.40;1.70;;;7.80;99.90;;;;;;5034240;28;20731;-80
2023/03/28 09:57:10;;;;;;;5.03;1.63;;;7.80;99.90;;;;;;5034493;28;20214;-81
2023/03/28 09:59:37;;;;;;;5.53;1.83;;;7.70;99.90;;;;;;5035489;28;20672;-81
2023/03/28 10:02:05;;;;;;;9.77;1.90;;;7.80;99.90;;;;;;5036021;28;20222;-80
2023/03/28 10:04:35;;;;;;;8.80;1.43;;;7.80;99.90;;;;;;5035583;28;20200;-81
2023/03/28 10:07:21;;;;;;;4.03;1.13;;;7.80;99.90;;;;;;5035524;28;20234;-81
2023/03/28 10:09:50;;;;;;;7.13;1.63;;;7.90;99.90;;;;;;5034930;28;20207;-81
2023/03/28 10:12:21;;;;;;;4.73;1.53;;;7.80;99.90;;;;;;5035271;28;20227;-81
2023/03/28 10:14:47;;;;;;;8.63;2.07;;;7.80;99.90;;;;;;5035482;28;20199;-80
2023/03/28 10:17:18;;;;;;;5.63;1.70;;;7.70;99.90;;;;;;5035765;28;20210;-81
2023/03/28 10:19:47;;;;;;;6.40;2.00;;;7.80;99.90;;;;;;5034806;28;20210;-81
2023/03/28 10:22:20;;;;;;;12.03;1.70;;;8.00;99.90;;;;;;5035609;28;20227;-81
2023/03/28 10:24:49;;;;;;;7.07;2.00;;;7.90;99.90;;;;;;5034958;28;20204;-81
2023/03/28 10:27:22;;;;;;;6.13;1.60;;;8.10;99.90;;;;;;5034928;28;20203;-81
2023/03/28 10:29:50;;;;;;;7.97;1.77;;;8.30;99.90;;;;;;5036749;28;20215;-81
2023/03/28 10:32:24;;;;;;;6.13;1.67;;;8.50;99.90;;;;;;5036489;28;20227;-81
2023/03/28 10:35:00;;;;;;;7.20;1.33;;;8.80;99.90;;;;;;5035420;28;20221;-81
2023/03/28 10:37:29;;;;;;;8.57;1.97;;;9.20;99.90;;;;;;5035693;28;20226;-81
2023/03/28 10:40:03;;;;;;;6.30;1.07;;;9.80;99.90;;;;;;5035884;28;20204;-81
2023/03/28 10:42:42;;;;;;;4.07;1.40;;;10.20;89.00;;;;;;5035370;28;20223;-81
2023/03/28 10:45:19;;;;;;;4.47;1.67;;;10.20;1.00;;;;;;5036135;28;20205;-81
2023/03/28 10:47:47;;;;;;;4.27;1.20;;;10.00;1.00;;;;;;5035582;28;20223;-81
2023/03/28 10:50:26;;;;;;;2.97;1.00;;;10.00;1.00;;;;;;5035415;28;20199;-82
2023/03/28 10:52:59;;;;;;;6.17;1.50;;;9.50;99.90;;;;;;5035615;28;20695;-80
2023/03/28 10:55:37;;;;;;;5.70;1.53;;;9.50;99.90;;;;;;5035451;28;20208;-82
2023/03/28 10:58:11;;;;;;;11.20;1.90;;;9.10;99.90;;;;;;5034990;28;20234;-81
2023/03/28 11:00:41;;;;;;;8.70;1.43;;;8.60;1.00;;;;;;5034528;28;20693;-83
2023/03/28 11:03:18;;;;;;;6.80;1.43;;;8.70;1.00;;;;;;5037312;28;20311;-81
2023/03/28 11:05:51;;;;;;;6.33;1.50;;;8.60;1.00;;;;;;5034959;28;20225;-81
2023/03/28 11:08:36;;;;;;;4.70;1.40;;;8.90;1.00;;;;;;5034194;28;20223;-80
2023/03/28 11:11:14;;;;;;;5.87;1.60;;;9.20;1.00;;;;;;5034879;28;20207;-81
2023/03/28 11:13:49;;;;;;;10.00;1.93;;;9.50;1.00;;;;;;5034190;28;20281;-81
2023/03/28 11:16:27;;;;;;;5.17;1.43;;;9.70;1.00;;;;;;5034849;28;20218;-80
2023/03/28 11:19:07;;;;;;;5.50;1.33;;;9.80;1.00;;;;;;5034360;28;20199;-81
2023/03/28 11:21:46;;;;;;;5.17;1.20;;;9.40;1.00;;;;;;5034650;28;20276;-81
2023/03/28 11:24:24;;;;;;;9.73;1.80;;;9.20;99.90;;;;;;5034458;28;20208;-81
2023/03/28 11:27:00;;;;;;;5.93;2.17;;;9.30;99.90;;;;;;5034073;28;20196;-81
2023/03/28 11:29:38;;;;;;;8.10;1.60;;;9.10;99.90;;;;;;5038936;28;20216;-81
2023/03/28 11:32:13;;;;;;;3.50;1.67;;;9.40;99.90;;;;;;5033272;28;20277;-81
2023/03/28 11:34:44;;;;;;;3.63;1.17;;;10.00;1.00;;;;;;5032411;28;20243;-81
2023/03/28 11:37:16;;;;;;;3.70;1.00;;;9.60;1.00;;;;;;5046547;28;20720;-81
2023/03/28 11:39:49;;;;;;;6.77;2.70;;;9.40;1.00;;;;;;5038820;28;20295;-80
2023/03/28 11:42:24;;;;;;;6.53;1.33;;;9.20;1.00;;;;;;5034099;28;20717;-81
2023/03/28 11:45:00;;;;;;;4.70;1.60;;;9.20;1.00;;;;;;5013631;28;20226;-81
2023/03/28 11:47:32;;;;;;;4.03;1.00;;;9.20;1.00;;;;;;5015918;28;20203;-81
2023/03/28 11:50:04;;;;;;;6.20;1.77;;;9.20;99.90;;;;;;5038046;28;20238;-81
2023/03/28 11:52:36;;;;;;;8.70;1.53;;;9.10;99.90;;;;;;5035529;28;20235;-81
2023/03/28 11:55:12;;;;;;;3.83;1.90;;;9.10;99.90;;;;;;5038978;28;20199;-80
2023/03/28 11:57:47;;;;;;;6.43;1.90;;;8.90;99.90;;;;;;5038422;28;20206;-80
2023/03/28 12:00:20;;;;;;;3.70;1.30;;;8.90;96.40;;;;;;5037855;28;20199;-81
2023/03/28 12:02:51;;;;;;;5.27;1.20;;;8.70;16.40;;;;;;5039677;28;20225;-81
2023/03/28 12:05:31;;;;;;;2.93;1.07;;;8.90;41.70;;;;;;5037663;28;20249;-81
2023/03/28 12:08:06;;;;;;;4.90;1.67;;;9.20;23.10;;;;;;5036523;28;20664;-82
2023/03/28 12:10:35;;;;;;;5.07;1.27;;;9.50;24.70;;;;;;5036946;28;20269;-81
2023/03/28 12:13:11;;;;;;;3.27;1.17;;;10.10;94.80;;;;;;5038558;28;20770;-81
2023/03/28 12:15:44;;;;;;;5.73;1.10;;;9.90;1.00;;;;;;5037878;28;20268;-81
2023/03/28 12:18:15;;;;;;;5.03;1.60;;;9.70;1.00;;;;;;5038384;28;20239;-81
2023/03/28 12:20:48;;;;;;;5.53;1.30;;;9.60;1.00;;;;;;5038144;28;20566;-81
2023/03/28 12:23:23;;;;;;;4.03;1.87;;;9.40;1.00;;;;;;5036369;28;20230;-81
2023/03/28 12:26:00;;;;;;;2.77;1.20;;;9.50;1.00;;;;;;5037661;28;20206;-81
2023/03/28 12:28:35;;;;;;;6.80;1.47;;;9.50;1.00;;;;;;5037526;28;20326;-81
2023/03/28 12:31:09;;;;;;;4.10;1.60;;;9.50;1.00;;;;;;5038300;28;20241;-81
2023/03/28 12:33:51;;;;;;;5.13;1.40;;;9.60;1.00;;;;;;5037419;28;20231;-81
2023/03/28 12:36:24;;;;;;;2.80;1.20;;;9.60;1.00;;;;;;5035981;28;20196;-81
2023/03/28 12:38:57;;;;;;;4.87;1.50;;;9.40;1.00;;;;;;5038390;28;20214;-80
2023/03/28 12:41:29;;;;;;;4.93;1.23;;;9.30;1.00;;;;;;5036994;28;20623;-81
2023/03/28 12:43:59;;;;;;;8.43;1.73;;;9.50;1.00;;;;;;5038164;28;20251;-81
2023/03/28 12:46:32;;;;;;;4.67;1.63;;;9.80;1.00;;;;;;5037122;28;20212;-82
2023/03/28 12:49:04;;;;;;;4.80;1.77;;;9.90;1.00;;;;;;5037487;28;20600;-81
2023/03/28 12:51:35;;;;;;;5.27;1.23;;;10.10;1.00;;;;;;5036795;28;20208;-81
2023/03/28 12:54:24;;;;;;;4.20;1.67;;;9.90;1.00;;;;;;5035929;28;20224;-81
2023/03/28 12:57:03;;;;;;;5.47;1.40;;;9.80;99.90;;;;;;5036667;28;20895;-81
2023/03/28 12:59:49;;;;;;;2.50;1.20;;;9.70;99.90;;;;;;5035425;28;20203;-81
2023/03/28 13:02:23;;;;;;;4.13;1.50;;;10.10;99.90;;;;;;5036048;28;20232;-81
2023/03/28 13:04:57;;;;;;;5.13;1.40;;;10.10;99.90;;;;;;5036646;28;20231;-80
2023/03/28 13:07:28;;;;;;;6.03;1.63;;;10.60;99.90;;;;;;5036195;28;20200;-81
2023/03/28 13:10:01;;;;;;;4.20;1.43;;;11.00;99.90;;;;;;5036801;28;20227;-81
2023/03/28 13:12:47;;;;;;;4.90;1.30;;;11.00;99.90;;;;;;5036644;28;20215;-81
2023/03/28 13:15:31;;;;;;;4.73;2.40;;;10.50;99.90;;;;;;5036812;28;20576;-81
2023/03/28 13:18:30;;;;;;;4.10;1.30;;;10.60;99.90;;;;;;5036381;28;20640;-81